createdAt,value
2022-12-15T00:01:09.680Z,133.5
2022-12-15T00:02:22.089Z,147
2022-12-15T00:03:35.013Z,130.1
2022-12-15T00:04:46.901Z,139.1
2022-12-15T00:05:58.949Z,138.1
2022-12-15T00:07:11.180Z,138.1
2022-12-15T00:08:23.498Z,138
2022-12-15T00:09:35.806Z,141.6
2022-12-15T00:10:47.935Z,142.4
2022-12-15T00:12:00.024Z,133.2
2022-12-15T00:13:12.288Z,139
2022-12-15T00:14:24.469Z,130.7
2022-12-15T00:15:36.813Z,136.4
2022-12-15T00:16:52.060Z,136.3
2022-12-15T00:18:04.230Z,136.9
2022-12-15T00:19:16.432Z,132.3
2022-12-15T00:20:28.881Z,135.3
2022-12-15T00:21:40.936Z,141.8
2022-12-15T00:22:53.193Z,134.9
2022-12-15T00:24:10.408Z,139.1
2022-12-15T00:25:22.724Z,135.3
2022-12-15T00:26:34.865Z,133.1
2022-12-15T00:27:47.157Z,136.8
2022-12-15T00:28:59.205Z,131.7
2022-12-15T00:30:11.464Z,129.3
2022-12-15T00:31:23.749Z,131.7
2022-12-15T00:32:35.940Z,131
2022-12-15T00:33:48.194Z,131.2
2022-12-15T00:35:00.284Z,130.5
2022-12-15T00:36:12.652Z,137.7
2022-12-15T00:37:24.842Z,133.6
2022-12-15T00:38:37.081Z,137.4
2022-12-15T00:39:47.296Z,138.2
2022-12-15T00:40:54.502Z,131.7
2022-12-15T00:42:04.553Z,134.7
2022-12-15T00:43:12.261Z,141.8
2022-12-15T00:44:20.826Z,138
2022-12-15T00:45:26.476Z,141
2022-12-15T00:46:38.839Z,139.4
2022-12-15T00:47:51.020Z,133.1
2022-12-15T00:48:58.080Z,132.9
2022-12-15T00:50:05.109Z,129.3
2022-12-15T00:51:17.405Z,129.3
2022-12-15T00:52:24.496Z,132.4
2022-12-15T00:53:36.857Z,129.9
2022-12-15T00:54:48.982Z,128.1
2022-12-15T00:56:01.173Z,138
2022-12-15T00:57:13.344Z,128.7
2022-12-15T00:58:25.649Z,126.8
2022-12-15T00:59:38.030Z,128.8
2022-12-15T01:00:50.113Z,124.8
2022-12-15T01:02:02.242Z,129.2
2022-12-15T01:03:14.520Z,127.1
2022-12-15T01:04:26.717Z,124.9
2022-12-15T01:05:39.068Z,127.7
2022-12-15T01:06:51.236Z,124.5
2022-12-15T01:08:03.240Z,124.6
2022-12-15T01:09:15.532Z,125.4
2022-12-15T01:10:27.788Z,122.3
2022-12-15T01:11:40.042Z,115.2
2022-12-15T01:12:52.474Z,118.6
2022-12-15T01:14:04.851Z,121.7
2022-12-15T01:15:17.211Z,120.5
2022-12-15T01:16:29.421Z,126.7
2022-12-15T01:17:41.701Z,123.6
2022-12-15T01:18:54.012Z,118.5
2022-12-15T01:20:06.477Z,122.3
2022-12-15T01:21:20.759Z,115.9
2022-12-15T01:22:25.940Z,122.1
2022-12-15T01:23:33.856Z,115.7
2022-12-15T01:24:40.644Z,118.2
2022-12-15T01:25:49.540Z,116.4
2022-12-15T01:26:54.925Z,122.7
2022-12-15T01:28:01.956Z,117.3
2022-12-15T01:29:09.095Z,118.4
2022-12-15T01:30:16.251Z,124.1
2022-12-15T01:31:23.505Z,116.4
2022-12-15T01:32:30.559Z,114.2
2022-12-15T01:33:37.688Z,120.9
2022-12-15T01:34:44.816Z,116.3
2022-12-15T01:35:51.923Z,110.7
2022-12-15T01:36:58.985Z,115.5
2022-12-15T01:38:06.268Z,116.5
2022-12-15T01:39:13.255Z,116.6
2022-12-15T01:40:20.402Z,112.7
2022-12-15T01:41:32.645Z,109.3
2022-12-15T01:42:39.772Z,108.9
2022-12-15T01:43:46.874Z,112.4
2022-12-15T01:44:54.032Z,111.9
2022-12-15T01:46:01.120Z,118.2
2022-12-15T01:47:13.371Z,114.9
2022-12-15T01:48:20.471Z,108.9
2022-12-15T01:49:32.744Z,112.5
2022-12-15T01:50:39.939Z,112.8
2022-12-15T01:51:47.109Z,113.9
2022-12-15T01:52:54.192Z,116.7
2022-12-15T01:54:01.192Z,116.4
2022-12-15T01:55:08.305Z,113.5
2022-12-15T01:56:15.513Z,113.6
2022-12-15T01:57:22.628Z,115.6
2022-12-15T01:58:30.009Z,115.9
2022-12-15T01:59:36.884Z,114.9
2022-12-15T02:00:44.089Z,109.8
2022-12-15T02:01:51.348Z,110.9
2022-12-15T02:02:58.316Z,104.2
2022-12-15T02:04:05.359Z,111.1
2022-12-15T02:05:12.688Z,102
2022-12-15T02:06:19.652Z,106.1
2022-12-15T02:07:26.868Z,103.6
2022-12-15T02:08:33.912Z,104
2022-12-15T02:09:41.105Z,107.6
2022-12-15T02:10:48.328Z,108.6
2022-12-15T02:12:03.364Z,105.5
2022-12-15T02:13:15.601Z,112.4
2022-12-15T02:14:28.500Z,120.7
2022-12-15T02:15:35.490Z,117.1
2022-12-15T02:16:42.711Z,121.1
2022-12-15T02:17:52.263Z,114.4
2022-12-15T02:19:10.005Z,122.1
2022-12-15T02:20:20.532Z,116.9
2022-12-15T02:21:38.192Z,125.3
2022-12-15T02:22:45.174Z,118
2022-12-15T02:24:02.392Z,118.2
2022-12-15T02:25:19.844Z,122.4
2022-12-15T02:26:35.039Z,117.9
2022-12-15T02:27:52.433Z,119
2022-12-15T02:29:05.088Z,120.4
2022-12-15T02:30:17.203Z,113.5
2022-12-15T02:31:29.543Z,115.3
2022-12-15T02:32:44.817Z,116.4
2022-12-15T02:34:02.486Z,123.5
2022-12-15T02:35:14.712Z,122.5
2022-12-15T02:36:27.140Z,118.2
2022-12-15T02:37:36.691Z,116
2022-12-15T02:38:43.784Z,112.9
2022-12-15T02:39:50.920Z,109.4
2022-12-15T02:40:57.988Z,112.1
2022-12-15T02:42:05.130Z,111.9
2022-12-15T02:43:15.258Z,110.7
2022-12-15T02:44:22.590Z,120
2022-12-15T02:45:39.806Z,121
2022-12-15T02:46:53.050Z,116.3
2022-12-15T02:48:10.247Z,113.7
2022-12-15T02:49:27.612Z,113.6
2022-12-15T02:50:39.800Z,119.2
2022-12-15T02:51:56.986Z,111.9
2022-12-15T02:53:12.261Z,114.7
2022-12-15T02:54:27.065Z,114.6
2022-12-15T02:55:42.001Z,112.9
2022-12-15T02:56:54.311Z,120.6
2022-12-15T02:58:04.328Z,121
2022-12-15T02:59:21.808Z,118.7
2022-12-15T03:00:28.685Z,114.5
2022-12-15T03:01:35.956Z,113.6
2022-12-15T03:02:43.182Z,111.8
2022-12-15T03:03:50.228Z,113.9
2022-12-15T03:04:57.137Z,117.8
2022-12-15T03:06:04.270Z,108.2
2022-12-15T03:07:11.404Z,118.5
2022-12-15T03:08:18.597Z,110.1
2022-12-15T03:09:25.882Z,112
2022-12-15T03:10:33.176Z,114.4
2022-12-15T03:11:40.005Z,118.7
2022-12-15T03:12:47.272Z,114.6
2022-12-15T03:13:54.363Z,108.7
2022-12-15T03:15:01.700Z,109.6
2022-12-15T03:16:09.109Z,104.2
2022-12-15T03:17:16.293Z,100.1
2022-12-15T03:18:23.353Z,102.1
2022-12-15T03:19:30.432Z,103.7
2022-12-15T03:20:37.575Z,98.7
2022-12-15T03:21:44.761Z,102.2
2022-12-15T03:22:52.123Z,99.9
2022-12-15T03:23:59.456Z,100.6
2022-12-15T03:25:06.620Z,99.8
2022-12-15T03:26:13.820Z,101.8
2022-12-15T03:27:20.840Z,100.8
2022-12-15T03:28:28.110Z,102.3
2022-12-15T03:29:35.461Z,107.2
2022-12-15T03:30:42.470Z,108.6
2022-12-15T03:31:49.655Z,103.1
2022-12-15T03:32:56.683Z,106.9
2022-12-15T03:34:03.756Z,105.6
2022-12-15T03:35:10.949Z,107.7
2022-12-15T03:36:18.051Z,102.7
2022-12-15T03:37:25.227Z,101.4
2022-12-15T03:38:32.426Z,98.9
2022-12-15T03:39:39.477Z,102.8
2022-12-15T03:40:46.572Z,103.4
2022-12-15T03:41:53.788Z,108
2022-12-15T03:43:00.795Z,105.2
2022-12-15T03:44:08.129Z,101.6
2022-12-15T03:45:15.032Z,102.9
2022-12-15T03:46:24.774Z,96.6
2022-12-15T03:47:31.972Z,96.6
2022-12-15T03:48:39.084Z,91
2022-12-15T03:49:46.220Z,90.7
2022-12-15T03:50:53.508Z,98
2022-12-15T03:52:00.394Z,93.5
2022-12-15T03:53:07.604Z,95.7
2022-12-15T03:54:14.752Z,101.4
2022-12-15T03:55:21.847Z,99
2022-12-15T03:56:29.294Z,94.6
2022-12-15T03:57:36.210Z,107.4
2022-12-15T03:58:43.244Z,107.3
2022-12-15T03:59:50.579Z,117.2
2022-12-15T04:00:57.523Z,112.5
2022-12-15T04:02:10.880Z,116.3
2022-12-15T04:03:17.786Z,108.6
2022-12-15T04:04:25.259Z,106.7
2022-12-15T04:05:32.147Z,111
2022-12-15T04:06:39.365Z,112.8
2022-12-15T04:07:46.459Z,108.3
2022-12-15T04:08:53.696Z,105.9
2022-12-15T04:10:00.681Z,107.5
2022-12-15T04:11:07.840Z,105.7
2022-12-15T04:12:15.009Z,98.1
2022-12-15T04:13:22.188Z,106.8
2022-12-15T04:14:29.305Z,94.8
2022-12-15T04:15:36.454Z,89.7
2022-12-15T04:16:43.625Z,93.5
2022-12-15T04:17:50.656Z,91.1
2022-12-15T04:18:57.877Z,78.7
2022-12-15T04:20:09.931Z,82.7
2022-12-15T04:21:17.200Z,82.5
2022-12-15T04:22:24.319Z,78.2
2022-12-15T04:23:31.802Z,81.6
2022-12-15T04:24:38.556Z,81.5
2022-12-15T04:25:50.899Z,80.7
2022-12-15T04:27:03.011Z,80.7
2022-12-15T04:28:15.171Z,72.8
2022-12-15T04:29:27.426Z,72.7
2022-12-15T04:30:39.742Z,68.8
2022-12-15T04:31:55.291Z,70.2
2022-12-15T04:33:07.873Z,71.6
2022-12-15T04:34:19.840Z,73.1
2022-12-15T04:35:32.112Z,72.6
2022-12-15T04:36:44.383Z,69.3
2022-12-15T04:37:56.640Z,74.2
2022-12-15T04:39:08.716Z,74.2
2022-12-15T04:40:20.981Z,70.8
2022-12-15T04:41:33.232Z,73.9
2022-12-15T04:42:45.428Z,74.4
2022-12-15T04:43:57.879Z,71.5
2022-12-15T04:45:11.505Z,70.1
2022-12-15T04:46:22.661Z,74.6
2022-12-15T04:47:34.863Z,69
2022-12-15T04:48:47.042Z,75.1
2022-12-15T04:49:59.176Z,74.2
2022-12-15T04:51:11.469Z,71.6
2022-12-15T04:52:23.668Z,86
2022-12-15T04:53:35.903Z,75.2
2022-12-15T04:54:48.139Z,73.7
2022-12-15T04:56:00.321Z,76.8
2022-12-15T04:57:15.022Z,72.2
2022-12-15T04:58:27.334Z,74.8
2022-12-15T04:59:39.503Z,74.1
2022-12-15T05:00:51.784Z,77.1
2022-12-15T05:02:04.074Z,78.3
2022-12-15T05:03:18.460Z,80.8
2022-12-15T05:04:28.442Z,76.9
2022-12-15T05:05:40.548Z,79.8
2022-12-15T05:06:53.044Z,76.9
2022-12-15T05:08:05.488Z,75.5
2022-12-15T05:09:17.712Z,75.5
2022-12-15T05:10:29.907Z,81.9
2022-12-15T05:11:42.155Z,78.8
2022-12-15T05:12:54.770Z,82.8
2022-12-15T05:14:09.540Z,81.3
2022-12-15T05:15:21.810Z,84.5
2022-12-15T05:16:34.066Z,85.7
2022-12-15T05:17:46.555Z,86.1
2022-12-15T05:18:58.453Z,77.7
2022-12-15T05:20:10.603Z,81.9
2022-12-15T05:21:22.834Z,78.4
2022-12-15T05:22:35.087Z,72.4
2022-12-15T05:23:47.467Z,78.7
2022-12-15T05:24:59.615Z,75
2022-12-15T05:26:11.689Z,78.3
2022-12-15T05:27:23.918Z,78.7
2022-12-15T05:28:36.198Z,76.9
2022-12-15T05:29:48.358Z,78.4
2022-12-15T05:31:00.508Z,75.3
2022-12-15T05:32:12.707Z,73.6
2022-12-15T05:33:20.018Z,75.2
2022-12-15T05:34:27.074Z,76.4
2022-12-15T05:35:34.098Z,70.1
2022-12-15T05:36:41.219Z,74.8
2022-12-15T05:37:48.403Z,75.1
2022-12-15T05:38:55.555Z,74.7
2022-12-15T05:40:02.774Z,77.9
2022-12-15T05:41:10.249Z,73.7
2022-12-15T05:42:17.344Z,74
2022-12-15T05:43:26.462Z,77.6
2022-12-15T05:44:31.723Z,76.7
2022-12-15T05:45:38.835Z,72.3
2022-12-15T05:46:46.184Z,69.4
2022-12-15T05:47:53.126Z,72.2
2022-12-15T05:49:00.158Z,67.7
2022-12-15T05:50:07.515Z,70.5
2022-12-15T05:51:14.906Z,66.7
2022-12-15T05:52:22.124Z,65.5
2022-12-15T05:53:29.674Z,67.2
2022-12-15T05:54:36.373Z,69.8
2022-12-15T05:55:43.451Z,68.2
2022-12-15T05:56:50.749Z,68.3
2022-12-15T05:57:57.842Z,64.9
2022-12-15T05:59:04.823Z,64.8
2022-12-15T06:00:12.161Z,65.2
2022-12-15T06:01:19.163Z,66.6
2022-12-15T06:02:26.354Z,69.2
2022-12-15T06:03:33.818Z,67.4
2022-12-15T06:04:40.742Z,67.7
2022-12-15T06:05:51.745Z,68.9
2022-12-15T06:06:54.812Z,69
2022-12-15T06:08:01.846Z,69.9
2022-12-15T06:09:08.951Z,71.6
2022-12-15T06:10:16.076Z,69.9
2022-12-15T06:11:23.187Z,77
2022-12-15T06:12:30.410Z,76.1
2022-12-15T06:13:37.879Z,84.8
2022-12-15T06:14:45.203Z,81
2022-12-15T06:15:52.318Z,84.7
2022-12-15T06:17:02.406Z,84.5
2022-12-15T06:18:09.525Z,86.6
2022-12-15T06:19:16.658Z,86.2
2022-12-15T06:20:23.958Z,82.1
2022-12-15T06:21:31.152Z,78.6
2022-12-15T06:22:44.225Z,79.7
2022-12-15T06:23:48.313Z,78.1
2022-12-15T06:24:55.525Z,76
2022-12-15T06:26:02.480Z,72.9
2022-12-15T06:27:15.202Z,75.5
2022-12-15T06:28:22.370Z,75.2
2022-12-15T06:29:29.518Z,78.4
2022-12-15T06:30:36.635Z,80.6
2022-12-15T06:31:43.925Z,80.8
2022-12-15T06:32:51.051Z,80.6
2022-12-15T06:34:01.972Z,85.7
2022-12-15T06:35:05.090Z,82.5
2022-12-15T06:36:12.322Z,88.3
2022-12-15T06:37:19.530Z,88.3
2022-12-15T06:38:26.734Z,83.4
2022-12-15T06:39:33.671Z,89.2
2022-12-15T06:40:40.775Z,86.4
2022-12-15T06:41:48.003Z,88.9
2022-12-15T06:42:55.173Z,85.1
2022-12-15T06:44:02.188Z,87.9
2022-12-15T06:45:09.474Z,87.2
2022-12-15T06:46:16.488Z,84.1
2022-12-15T06:47:23.566Z,84.8
2022-12-15T06:48:30.682Z,88.3
2022-12-15T06:49:37.875Z,87.5
2022-12-15T06:50:44.994Z,86
2022-12-15T06:51:52.718Z,88.3
2022-12-15T06:53:00.182Z,88.2
2022-12-15T06:54:07.275Z,87
2022-12-15T06:55:14.482Z,86
2022-12-15T06:56:24.384Z,84.1
2022-12-15T06:57:31.838Z,85.8
2022-12-15T06:58:38.972Z,85.5
2022-12-15T06:59:46.261Z,84.2
2022-12-15T07:00:53.206Z,78
2022-12-15T07:02:00.496Z,80.8
2022-12-15T07:03:10.544Z,81.2
2022-12-15T07:04:17.728Z,79.4
2022-12-15T07:05:24.718Z,77.6
2022-12-15T07:06:31.898Z,81.8
2022-12-15T07:07:38.997Z,77.8
2022-12-15T07:08:46.166Z,77.5
2022-12-15T07:09:53.165Z,71
2022-12-15T07:11:00.324Z,68.2
2022-12-15T07:12:07.617Z,68.6
2022-12-15T07:13:15.147Z,70.3
2022-12-15T07:14:22.183Z,68.6
2022-12-15T07:15:29.382Z,66.6
2022-12-15T07:16:36.578Z,71.3
2022-12-15T07:17:43.675Z,71
2022-12-15T07:18:50.915Z,73.1
2022-12-15T07:19:58.374Z,69.9
2022-12-15T07:21:05.415Z,72
2022-12-15T07:22:12.539Z,74.2
2022-12-15T07:23:29.563Z,74.5
2022-12-15T07:24:26.825Z,75.1
2022-12-15T07:25:34.466Z,83.1
2022-12-15T07:26:41.554Z,75.9
2022-12-15T07:27:48.749Z,75.9
2022-12-15T07:28:55.931Z,75.3
2022-12-15T07:30:02.903Z,72.8
2022-12-15T07:31:10.570Z,68.2
2022-12-15T07:32:17.802Z,65.6
2022-12-15T07:33:25.083Z,71.9
2022-12-15T07:34:32.013Z,68
2022-12-15T07:35:39.086Z,70.6
2022-12-15T07:36:51.720Z,74.9
2022-12-15T07:37:53.395Z,74.3
2022-12-15T07:39:00.425Z,71.7
2022-12-15T07:40:07.535Z,72.1
2022-12-15T07:41:14.638Z,73.2
2022-12-15T07:42:22.187Z,75.7
2022-12-15T07:43:29.858Z,81.4
2022-12-15T07:44:36.733Z,74.3
2022-12-15T07:45:48.281Z,72.6
2022-12-15T07:46:56.011Z,76.2
2022-12-15T07:48:03.198Z,80.6
2022-12-15T07:49:10.107Z,80.7
2022-12-15T07:50:17.226Z,76.2
2022-12-15T07:51:24.370Z,68.3
2022-12-15T07:52:31.542Z,66.9
2022-12-15T07:53:38.714Z,69.6
2022-12-15T07:54:45.993Z,70.5
2022-12-15T07:56:06.654Z,92.2
2022-12-15T07:56:59.950Z,113.7
2022-12-15T07:58:07.148Z,113.1
2022-12-15T07:59:18.840Z,115.7
2022-12-15T08:00:37.441Z,138
2022-12-15T08:01:44.522Z,84.2
2022-12-15T08:02:51.694Z,72
2022-12-15T08:03:58.719Z,65.3
2022-12-15T08:05:05.643Z,222.4
2022-12-15T08:06:12.875Z,305.5
2022-12-15T08:07:20.005Z,258.5
2022-12-15T08:08:27.108Z,184.3
2022-12-15T08:09:34.302Z,142.1
2022-12-15T08:10:41.425Z,224.7
2022-12-15T08:11:48.571Z,537
2022-12-15T08:12:55.835Z,823.8
2022-12-15T08:14:04.290Z,814
2022-12-15T08:15:09.871Z,654.9
2022-12-15T08:16:17.095Z,478.3
2022-12-15T08:17:24.147Z,550
2022-12-15T08:18:31.371Z,486.5
2022-12-15T08:19:38.428Z,399.7
2022-12-15T08:20:45.549Z,401.8
2022-12-15T08:21:52.712Z,229.8
2022-12-15T08:22:59.752Z,105.4
2022-12-15T08:24:07.001Z,98.5
2022-12-15T08:25:14.116Z,326.7
2022-12-15T08:26:25.148Z,260.9
2022-12-15T08:27:28.348Z,216.5
2022-12-15T08:28:35.468Z,343.2
2022-12-15T08:29:51.299Z,276.9
2022-12-15T08:30:49.836Z,165.5
2022-12-15T08:31:56.957Z,120.4
2022-12-15T08:33:03.933Z,179.9
2022-12-15T08:34:11.049Z,187.8
2022-12-15T08:35:39.208Z,135.6
2022-12-15T08:36:26.317Z,91.9
2022-12-15T08:37:33.575Z,79.6
2022-12-15T08:38:40.700Z,79.8
2022-12-15T08:39:47.781Z,86.3
2022-12-15T08:40:55.043Z,88.4
2022-12-15T08:42:02.128Z,84.5
2022-12-15T08:43:09.647Z,61.3
2022-12-15T08:44:17.151Z,63
2022-12-15T08:45:23.939Z,60.9
2022-12-15T08:46:31.167Z,63.5
2022-12-15T08:47:38.233Z,65.3
2022-12-15T08:48:45.463Z,66.8
2022-12-15T08:49:52.570Z,92.9
2022-12-15T08:50:59.645Z,58.3
2022-12-15T08:52:06.700Z,60.9
2022-12-15T08:53:30.567Z,65
2022-12-15T08:54:21.000Z,58.8
2022-12-15T08:55:28.176Z,63
2022-12-15T08:56:35.459Z,65.1
2022-12-15T08:57:42.564Z,58.8
2022-12-15T08:58:49.616Z,59
2022-12-15T09:00:02.772Z,61
2022-12-15T09:01:10.450Z,64.5
2022-12-15T09:02:17.695Z,62.2
2022-12-15T09:03:24.700Z,62.2
2022-12-15T09:04:31.991Z,72.9
2022-12-15T09:05:39.029Z,84.5
2022-12-15T09:06:46.779Z,98.9
2022-12-15T09:07:53.784Z,88.9
2022-12-15T09:09:00.831Z,76.5
2022-12-15T09:10:08.027Z,68.3
2022-12-15T09:11:15.610Z,68.8
2022-12-15T09:12:22.718Z,74.3
2022-12-15T09:13:30.486Z,72.9
2022-12-15T09:14:37.070Z,66.2
2022-12-15T09:16:08.074Z,69.9
2022-12-15T09:16:51.398Z,68.8
2022-12-15T09:17:58.393Z,73.1
2022-12-15T09:19:05.471Z,102.4
2022-12-15T09:20:16.670Z,82.7
2022-12-15T09:21:19.714Z,69.7
2022-12-15T09:22:26.897Z,65.9
2022-12-15T09:23:35.010Z,69.8
2022-12-15T09:24:41.198Z,64.5
2022-12-15T09:25:48.296Z,64.8
2022-12-15T09:26:55.460Z,70.2
2022-12-15T09:28:02.660Z,67.6
2022-12-15T09:29:09.738Z,67.2
2022-12-15T09:30:16.753Z,73.3
2022-12-15T09:31:23.982Z,68.5
2022-12-15T09:32:31.040Z,79.6
2022-12-15T09:33:38.207Z,78.2
2022-12-15T09:34:45.401Z,81.3
2022-12-15T09:35:55.837Z,100
2022-12-15T09:37:06.134Z,110.3
2022-12-15T09:38:13.486Z,79.8
2022-12-15T09:39:20.394Z,75
2022-12-15T09:40:27.534Z,73.8
2022-12-15T09:41:34.635Z,67.7
2022-12-15T09:42:41.876Z,70
2022-12-15T09:43:49.707Z,71.1
2022-12-15T09:45:04.330Z,70.1
2022-12-15T09:46:16.521Z,71
2022-12-15T09:47:26.198Z,69.2
2022-12-15T09:48:43.551Z,71.4
2022-12-15T09:49:50.562Z,72.6
2022-12-15T09:51:00.630Z,69.6
2022-12-15T09:52:11.184Z,72.6
2022-12-15T09:53:45.361Z,73.9
2022-12-15T09:54:24.702Z,73.2
2022-12-15T09:55:31.753Z,72.5
2022-12-15T09:56:38.993Z,73.7
2022-12-15T09:57:49.145Z,74.2
2022-12-15T09:58:56.304Z,72.8
2022-12-15T10:00:03.297Z,74.4
2022-12-15T10:01:10.961Z,73.7
2022-12-15T10:02:25.813Z,75.3
2022-12-15T10:03:36.400Z,72.9
2022-12-15T10:04:53.334Z,71.9
2022-12-15T10:06:17.523Z,72.1
2022-12-15T10:07:18.326Z,74.5
2022-12-15T10:08:25.260Z,72.3
2022-12-15T10:09:32.460Z,74.2
2022-12-15T10:10:39.617Z,69.2
2022-12-15T10:11:56.963Z,73.1
2022-12-15T10:13:12.045Z,78.3
2022-12-15T10:14:24.290Z,74.5
2022-12-15T10:15:33.976Z,68.3
2022-12-15T10:16:50.184Z,67.3
2022-12-15T10:18:01.486Z,67.8
2022-12-15T10:19:13.649Z,70.5
2022-12-15T10:20:28.613Z,69.1
2022-12-15T10:21:35.598Z,61.6
2022-12-15T10:22:42.738Z,62.3
2022-12-15T10:25:12.456Z,63.5
2022-12-15T10:26:03.970Z,64.1
2022-12-15T10:27:21.246Z,66
2022-12-15T10:28:39.010Z,62.6
2022-12-15T10:29:56.418Z,64.7
2022-12-15T10:31:06.546Z,62.9
2022-12-15T10:32:19.224Z,65.3
2022-12-15T10:33:34.514Z,64.8
2022-12-15T10:34:41.176Z,64.9
2022-12-15T10:35:48.492Z,64.6
2022-12-15T10:36:55.474Z,64.6
2022-12-15T10:38:02.398Z,67.9
2022-12-15T10:39:12.834Z,63.9
2022-12-15T10:40:16.715Z,63.8
2022-12-15T10:41:23.773Z,62.9
2022-12-15T10:42:31.006Z,66.9
2022-12-15T10:43:38.225Z,64.3
2022-12-15T10:44:50.433Z,64.7
2022-12-15T10:45:57.536Z,68.7
2022-12-15T10:47:09.575Z,69
2022-12-15T10:48:21.972Z,71.5
2022-12-15T10:49:28.986Z,66.7
2022-12-15T10:50:36.127Z,71.4
2022-12-15T10:51:43.286Z,68.6
2022-12-15T10:52:50.434Z,69.4
2022-12-15T10:53:57.634Z,69
2022-12-15T10:55:04.575Z,69.2
2022-12-15T10:56:23.828Z,68.9
2022-12-15T10:57:29.121Z,67.6
2022-12-15T10:58:36.484Z,69.8
2022-12-15T10:59:50.317Z,68
2022-12-15T11:00:56.838Z,68
2022-12-15T11:02:09.384Z,64.6
2022-12-15T11:03:21.576Z,62.9
2022-12-15T11:04:28.680Z,67.6
2022-12-15T11:05:35.780Z,64.3
2022-12-15T11:06:42.952Z,62.4
2022-12-15T11:07:50.101Z,60.9
2022-12-15T11:08:57.141Z,62.4
2022-12-15T11:10:15.565Z,63.7
2022-12-15T11:11:30.192Z,64
2022-12-15T11:12:42.452Z,65.1
2022-12-15T11:14:02.679Z,61.5
2022-12-15T11:15:11.592Z,62.2
2022-12-15T11:16:26.256Z,63.4
2022-12-15T11:17:34.209Z,64.1
2022-12-15T11:18:41.397Z,64.9
2022-12-15T11:19:58.176Z,62.4
2022-12-15T11:21:03.899Z,60.3
2022-12-15T11:22:16.204Z,61.7
2022-12-15T11:23:34.607Z,61.2
2022-12-15T11:24:49.252Z,63.6
2022-12-15T11:25:58.092Z,64.5
2022-12-15T11:27:03.960Z,66.9
2022-12-15T11:28:16.188Z,70.9
2022-12-15T11:29:26.365Z,66.1
2022-12-15T11:30:36.101Z,68.7
2022-12-15T11:31:46.392Z,74.8
2022-12-15T11:32:53.395Z,74.7
2022-12-15T11:34:03.038Z,73.4
2022-12-15T11:35:13.250Z,74.7
2022-12-15T11:36:22.927Z,74.2
2022-12-15T11:37:37.769Z,73.7
2022-12-15T11:38:48.010Z,69.8
2022-12-15T11:40:00.240Z,70.8
2022-12-15T11:41:17.572Z,74.8
2022-12-15T11:42:32.756Z,70.8
2022-12-15T11:43:50.288Z,76.3
2022-12-15T11:45:04.779Z,72.5
2022-12-15T11:46:17.007Z,72
2022-12-15T11:47:29.268Z,71.6
2022-12-15T11:48:46.538Z,71.4
2022-12-15T11:49:58.784Z,69
2022-12-15T11:51:11.008Z,70.3
2022-12-15T11:52:20.593Z,69
2022-12-15T11:53:36.491Z,67.7
2022-12-15T11:54:43.034Z,69.7
2022-12-15T11:55:57.839Z,69.4
2022-12-15T11:57:15.040Z,69.5
2022-12-15T11:58:32.737Z,65
2022-12-15T11:59:49.694Z,69.4
2022-12-15T12:01:01.808Z,69.2
2022-12-15T12:02:12.212Z,72.6
2022-12-15T12:03:26.874Z,65.2
2022-12-15T12:04:42.089Z,69.7
2022-12-15T12:05:57.383Z,72
2022-12-15T12:07:09.570Z,72.7
2022-12-15T12:08:21.802Z,72.2
2022-12-15T12:09:28.967Z,76.2
2022-12-15T12:10:39.174Z,74.3
2022-12-15T12:11:53.954Z,69.6
2022-12-15T12:13:06.663Z,70.8
2022-12-15T12:14:23.947Z,71.7
2022-12-15T12:15:36.167Z,71.5
2022-12-15T12:18:05.570Z,73.4
2022-12-15T12:19:20.479Z,66.6
2022-12-15T12:20:30.636Z,70.7
2022-12-15T12:21:50.831Z,75.9
2022-12-15T12:22:55.066Z,75.5
2022-12-15T12:24:07.674Z,78.7
2022-12-15T12:25:19.979Z,76
2022-12-15T12:26:26.979Z,74.7
2022-12-15T12:27:37.190Z,74
2022-12-15T12:28:44.322Z,72.4
2022-12-15T12:29:51.478Z,71.6
2022-12-15T12:31:03.610Z,76
2022-12-15T12:32:10.767Z,76.5
2022-12-15T12:33:20.458Z,78.3
2022-12-15T12:34:32.638Z,79.6
2022-12-15T12:35:42.400Z,80.1
2022-12-15T12:36:49.566Z,79
2022-12-15T12:38:01.130Z,81.2
2022-12-15T12:39:06.822Z,82.4
2022-12-15T12:40:13.842Z,81.5
2022-12-15T12:41:21.072Z,81.1
2022-12-15T12:42:38.457Z,88.5
2022-12-15T12:43:45.841Z,83.1
2022-12-15T12:44:55.814Z,85
2022-12-15T12:46:02.742Z,89.9
2022-12-15T12:47:20.111Z,85.4
2022-12-15T12:48:29.804Z,87.7
2022-12-15T12:49:42.083Z,89.9
2022-12-15T12:50:50.557Z,87.6
2022-12-15T12:51:56.505Z,86.4
2022-12-15T12:53:03.974Z,83.3
2022-12-15T12:54:10.987Z,85.9
2022-12-15T12:55:31.169Z,88.1
2022-12-15T12:56:44.075Z,85.9
2022-12-15T12:57:51.201Z,86.7
2022-12-15T12:58:58.378Z,89.8
2022-12-15T13:00:05.425Z,88.4
2022-12-15T13:01:20.450Z,85.3
2022-12-15T13:02:35.556Z,86.2
2022-12-15T13:03:42.466Z,84.5
2022-12-15T13:04:49.809Z,84
2022-12-15T13:06:05.354Z,85.7
2022-12-15T13:07:22.752Z,83.5
2022-12-15T13:08:35.527Z,82.4
2022-12-15T13:09:45.818Z,82.9
2022-12-15T13:10:52.755Z,86.9
2022-12-15T13:12:01.043Z,82.4
2022-12-15T13:13:06.959Z,91.7
2022-12-15T13:14:24.252Z,85.5
2022-12-15T13:15:29.358Z,90.6
2022-12-15T13:17:01.132Z,89.7
2022-12-15T13:17:49.539Z,85.8
2022-12-15T13:18:59.426Z,94.9
2022-12-15T13:20:06.492Z,86.9
2022-12-15T13:21:16.274Z,88
2022-12-15T13:22:34.205Z,90.9
2022-12-15T13:23:41.117Z,91.2
2022-12-15T13:24:48.607Z,93
2022-12-15T13:25:56.085Z,90.1
2022-12-15T13:27:02.462Z,89.9
2022-12-15T13:28:12.630Z,89.9
2022-12-15T13:29:24.982Z,89
2022-12-15T13:30:33.589Z,86.8
2022-12-15T13:31:43.737Z,86.6
2022-12-15T13:32:50.823Z,89.6
2022-12-15T13:33:58.192Z,86.5
2022-12-15T13:35:05.139Z,89.2
2022-12-15T13:36:15.713Z,92.5
2022-12-15T13:37:33.212Z,89.5
2022-12-15T13:38:54.965Z,90.1
2022-12-15T13:40:03.708Z,88.2
2022-12-15T13:41:21.133Z,89.4
2022-12-15T13:42:41.791Z,95.6
2022-12-15T13:43:36.148Z,96.8
2022-12-15T13:44:43.007Z,99.1
2022-12-15T13:45:54.440Z,102.2
2022-12-15T13:47:04.348Z,97.6
2022-12-15T13:48:19.169Z,106.2
2022-12-15T13:49:33.912Z,108
2022-12-15T13:50:51.639Z,89.4
2022-12-15T13:52:06.456Z,88.5
2022-12-15T13:53:23.671Z,85.9
2022-12-15T13:54:30.889Z,83.3
2022-12-15T13:55:38.064Z,80.3
2022-12-15T13:56:45.193Z,84.7
2022-12-15T13:57:52.595Z,81.1
2022-12-15T13:59:10.090Z,80.8
2022-12-15T14:00:20.310Z,87.9
2022-12-15T14:01:32.202Z,85.1
2022-12-15T14:02:34.566Z,88.9
2022-12-15T14:03:41.832Z,89.5
2022-12-15T14:04:59.826Z,93.1
2022-12-15T14:06:11.172Z,85.7
2022-12-15T14:07:18.346Z,92.1
2022-12-15T14:08:25.475Z,92.2
2022-12-15T14:09:32.654Z,89.3
2022-12-15T14:10:39.910Z,90
2022-12-15T14:11:53.816Z,89.6
2022-12-15T14:12:59.338Z,89.5
2022-12-15T14:14:06.282Z,90.2
2022-12-15T14:15:13.445Z,92.9
2022-12-15T14:16:20.567Z,94.1
2022-12-15T14:17:27.717Z,96.9
2022-12-15T14:18:34.912Z,96.2
2022-12-15T14:19:45.101Z,96.6
2022-12-15T14:20:52.209Z,95.7
2022-12-15T14:21:59.284Z,107.9
2022-12-15T14:23:06.418Z,106.9
2022-12-15T14:24:37.955Z,109.3
2022-12-15T14:25:34.469Z,106.4
2022-12-15T14:26:41.684Z,107.4
2022-12-15T14:27:50.613Z,103.7
2022-12-15T14:28:55.875Z,107
2022-12-15T14:30:05.469Z,105.2
2022-12-15T14:31:17.775Z,107.9
2022-12-15T14:32:24.873Z,100.5
2022-12-15T14:33:32.515Z,102.5
2022-12-15T14:34:39.127Z,102.4
2022-12-15T14:35:49.383Z,104.8
2022-12-15T14:36:54.029Z,102.8
2022-12-15T14:38:01.059Z,104.5
2022-12-15T14:39:08.437Z,102.4
2022-12-15T14:40:26.633Z,106.3
2022-12-15T14:41:29.039Z,108
2022-12-15T14:42:39.110Z,102.1
2022-12-15T14:43:46.281Z,109.1
2022-12-15T14:44:57.638Z,105
2022-12-15T14:46:00.646Z,102.4
2022-12-15T14:47:12.767Z,100.7
2022-12-15T14:48:40.371Z,106.2
2022-12-15T14:49:30.102Z,105.4
2022-12-15T14:50:42.298Z,104.6
2022-12-15T14:51:49.378Z,102.1
2022-12-15T14:52:56.809Z,109.3
2022-12-15T14:54:06.737Z,106.2
2022-12-15T14:55:24.077Z,115
2022-12-15T14:56:39.566Z,118.7
2022-12-15T14:57:46.597Z,118.9
2022-12-15T14:58:53.760Z,113.7
2022-12-15T15:00:03.820Z,115.3
2022-12-15T15:01:21.630Z,115
2022-12-15T15:02:37.129Z,116.1
2022-12-15T15:03:08.321Z,64
2022-12-15T15:03:44.014Z,110.1
2022-12-15T15:04:51.247Z,116.4
2022-12-15T15:06:03.459Z,121.2
2022-12-15T15:07:10.487Z,120.3
2022-12-15T15:08:17.579Z,124.1
2022-12-15T15:09:24.983Z,134.6
2022-12-15T15:10:31.825Z,128.7
2022-12-15T15:11:38.964Z,122.6
2022-12-15T15:12:46.205Z,125.2
2022-12-15T15:13:53.249Z,122.1
2022-12-15T15:15:00.380Z,121.9
2022-12-15T15:16:07.700Z,120.6
2022-12-15T15:17:18.345Z,122.4
2022-12-15T15:18:25.271Z,128.1
2022-12-15T15:19:33.540Z,123.9
2022-12-15T15:20:39.665Z,128
2022-12-15T15:21:46.716Z,125.3